sensor_id;sensor_type;location;lat;lon;timestamp;temperature;humidity
13711;DHT22;6927;51.256;9.410;2023-09-19T00:01:28;15.20;99.90
13711;DHT22;6927;51.256;9.410;2023-09-19T00:03:56;15.20;99.90
13711;DHT22;6927;51.256;9.410;2023-09-19T00:06:23;15.20;99.90
13711;DHT22;6927;51.256;9.410;2023-09-19T00:08:52;15.10;99.90
13711;DHT22;6927;51.256;9.410;2023-09-19T00:11:18;15.10;99.90
13711;DHT22;6927;51.256;9.410;2023-09-19T00:13:44;15.00;99.90
13711;DHT22;6927;51.256;9.410;2023-09-19T00:16:15;15.00;99.90
13711;DHT22;6927;51.256;9.410;2023-09-19T00:18:40;15.00;99.90
13711;DHT22;6927;51.256;9.410;2023-09-19T00:21:06;15.00;99.90
13711;DHT22;6927;51.256;9.410;2023-09-19T00:23:32;15.00;99.90
13711;DHT22;6927;51.256;9.410;2023-09-19T00:26:01;15.10;99.90
13711;DHT22;6927;51.256;9.410;2023-09-19T00:28:27;15.00;99.90
13711;DHT22;6927;51.256;9.410;2023-09-19T00:30:53;15.10;99.90
13711;DHT22;6927;51.256;9.410;2023-09-19T00:33:21;15.10;99.90
13711;DHT22;6927;51.256;9.410;2023-09-19T00:35:51;15.10;99.90
13711;DHT22;6927;51.256;9.410;2023-09-19T00:38:17;15.00;99.90
13711;DHT22;6927;51.256;9.410;2023-09-19T00:40:45;15.00;99.90
13711;DHT22;6927;51.256;9.410;2023-09-19T00:43:11;14.90;99.90
13711;DHT22;6927;51.256;9.410;2023-09-19T00:45:38;14.90;99.90
13711;DHT22;6927;51.256;9.410;2023-09-19T00:48:04;14.90;99.90
13711;DHT22;6927;51.256;9.410;2023-09-19T00:50:31;15.00;99.90
13711;DHT22;6927;51.256;9.410;2023-09-19T00:52:58;15.10;99.90
13711;DHT22;6927;51.256;9.410;2023-09-19T00:55:25;15.10;99.90
13711;DHT22;6927;51.256;9.410;2023-09-19T00:57:51;15.10;99.90
13711;DHT22;6927;51.256;9.410;2023-09-19T01:00:18;15.20;99.90
13711;DHT22;6927;51.256;9.410;2023-09-19T01:02:45;15.20;99.90
13711;DHT22;6927;51.256;9.410;2023-09-19T01:05:11;15.20;99.90
13711;DHT22;6927;51.256;9.410;2023-09-19T01:07:41;15.20;99.90
13711;DHT22;6927;51.256;9.410;2023-09-19T01:10:08;15.20;99.90
13711;DHT22;6927;51.256;9.410;2023-09-19T01:13:05;15.30;99.90
13711;DHT22;6927;51.256;9.410;2023-09-19T01:15:43;15.30;99.90
13711;DHT22;6927;51.256;9.410;2023-09-19T01:18:35;15.30;99.90
13711;DHT22;6927;51.256;9.410;2023-09-19T01:21:57;15.30;99.90
13711;DHT22;6927;51.256;9.410;2023-09-19T01:27:25;15.20;99.90
13711;DHT22;6927;51.256;9.410;2023-09-19T01:30:35;15.20;99.90
13711;DHT22;6927;51.256;9.410;2023-09-19T01:32:53;15.20;99.90
13711;DHT22;6927;51.256;9.410;2023-09-19T01:35:19;15.20;99.90
13711;DHT22;6927;51.256;9.410;2023-09-19T01:37:45;15.20;99.90
13711;DHT22;6927;51.256;9.410;2023-09-19T01:40:12;15.20;99.90
13711;DHT22;6927;51.256;9.410;2023-09-19T01:42:54;15.20;99.90
13711;DHT22;6927;51.256;9.410;2023-09-19T01:50:59;15.30;99.90
13711;DHT22;6927;51.256;9.410;2023-09-19T01:53:34;15.30;99.90
13711;DHT22;6927;51.256;9.410;2023-09-19T01:56:01;15.30;99.90
13711;DHT22;6927;51.256;9.410;2023-09-19T01:58:35;15.30;99.90
13711;DHT22;6927;51.256;9.410;2023-09-19T02:01:04;15.30;99.90
13711;DHT22;6927;51.256;9.410;2023-09-19T02:03:32;15.30;99.90
13711;DHT22;6927;51.256;9.410;2023-09-19T02:05:59;15.30;99.90
13711;DHT22;6927;51.256;9.410;2023-09-19T02:08:24;15.20;99.90
13711;DHT22;6927;51.256;9.410;2023-09-19T02:10:51;15.20;99.90
13711;DHT22;6927;51.256;9.410;2023-09-19T02:13:19;15.20;99.90
13711;DHT22;6927;51.256;9.410;2023-09-19T02:15:45;15.20;99.90
13711;DHT22;6927;51.256;9.410;2023-09-19T02:18:14;15.20;99.90
13711;DHT22;6927;51.256;9.410;2023-09-19T02:20:40;15.20;99.90
13711;DHT22;6927;51.256;9.410;2023-09-19T02:23:06;15.10;99.90
13711;DHT22;6927;51.256;9.410;2023-09-19T02:25:33;15.10;99.90
13711;DHT22;6927;51.256;9.410;2023-09-19T02:27:58;15.00;99.90
13711;DHT22;6927;51.256;9.410;2023-09-19T02:30:25;15.10;99.90
13711;DHT22;6927;51.256;9.410;2023-09-19T02:32:53;15.00;99.90
13711;DHT22;6927;51.256;9.410;2023-09-19T02:35:19;15.00;99.90
13711;DHT22;6927;51.256;9.410;2023-09-19T02:37:48;15.00;99.90
13711;DHT22;6927;51.256;9.410;2023-09-19T02:40:14;15.00;99.90
13711;DHT22;6927;51.256;9.410;2023-09-19T02:42:48;14.90;99.90
13711;DHT22;6927;51.256;9.410;2023-09-19T02:45:18;14.90;99.90
13711;DHT22;6927;51.256;9.410;2023-09-19T02:47:45;14.90;99.90
13711;DHT22;6927;51.256;9.410;2023-09-19T02:50:11;14.90;99.90
13711;DHT22;6927;51.256;9.410;2023-09-19T02:52:38;14.90;99.90
13711;DHT22;6927;51.256;9.410;2023-09-19T02:55:03;14.90;99.90
13711;DHT22;6927;51.256;9.410;2023-09-19T02:57:31;14.90;99.90
13711;DHT22;6927;51.256;9.410;2023-09-19T02:59:59;14.90;99.90
13711;DHT22;6927;51.256;9.410;2023-09-19T03:02:26;14.80;99.90
13711;DHT22;6927;51.256;9.410;2023-09-19T03:04:53;14.80;99.90
13711;DHT22;6927;51.256;9.410;2023-09-19T03:07:19;14.80;99.90
13711;DHT22;6927;51.256;9.410;2023-09-19T03:09:44;14.80;99.90
13711;DHT22;6927;51.256;9.410;2023-09-19T03:12:11;14.70;99.90
13711;DHT22;6927;51.256;9.410;2023-09-19T03:14:36;14.70;99.90
13711;DHT22;6927;51.256;9.410;2023-09-19T03:17:02;14.70;99.90
13711;DHT22;6927;51.256;9.410;2023-09-19T03:19:31;14.60;99.90
13711;DHT22;6927;51.256;9.410;2023-09-19T03:21:59;14.60;99.90
13711;DHT22;6927;51.256;9.410;2023-09-19T03:24:24;14.60;99.90
13711;DHT22;6927;51.256;9.410;2023-09-19T03:26:50;14.60;99.90
13711;DHT22;6927;51.256;9.410;2023-09-19T03:29:16;14.50;99.90
13711;DHT22;6927;51.256;9.410;2023-09-19T03:31:42;14.40;99.90
13711;DHT22;6927;51.256;9.410;2023-09-19T03:34:08;14.40;99.90
13711;DHT22;6927;51.256;9.410;2023-09-19T03:36:34;14.40;99.90
13711;DHT22;6927;51.256;9.410;2023-09-19T03:39:00;14.30;99.90
13711;DHT22;6927;51.256;9.410;2023-09-19T03:41:26;14.30;99.90
13711;DHT22;6927;51.256;9.410;2023-09-19T03:43:51;14.20;99.90
13711;DHT22;6927;51.256;9.410;2023-09-19T03:46:18;14.20;99.90
13711;DHT22;6927;51.256;9.410;2023-09-19T03:48:43;14.10;99.90
13711;DHT22;6927;51.256;9.410;2023-09-19T03:51:09;14.00;99.90
13711;DHT22;6927;51.256;9.410;2023-09-19T03:53:36;14.00;99.90
13711;DHT22;6927;51.256;9.410;2023-09-19T03:56:01;14.00;99.90
13711;DHT22;6927;51.256;9.410;2023-09-19T03:58:28;13.90;99.90
13711;DHT22;6927;51.256;9.410;2023-09-19T04:00:56;13.90;99.90
13711;DHT22;6927;51.256;9.410;2023-09-19T04:03:23;13.90;99.90
13711;DHT22;6927;51.256;9.410;2023-09-19T04:05:50;13.90;99.90
13711;DHT22;6927;51.256;9.410;2023-09-19T04:08:16;13.90;99.90
13711;DHT22;6927;51.256;9.410;2023-09-19T04:10:42;13.90;99.90
13711;DHT22;6927;51.256;9.410;2023-09-19T04:13:09;13.90;99.90
13711;DHT22;6927;51.256;9.410;2023-09-19T04:15:34;13.90;99.90
13711;DHT22;6927;51.256;9.410;2023-09-19T04:18:00;13.90;99.90
13711;DHT22;6927;51.256;9.410;2023-09-19T04:20:25;14.00;99.90
13711;DHT22;6927;51.256;9.410;2023-09-19T04:22:51;14.00;99.90
13711;DHT22;6927;51.256;9.410;2023-09-19T04:25:17;14.00;99.90
13711;DHT22;6927;51.256;9.410;2023-09-19T04:27:44;14.10;99.90
13711;DHT22;6927;51.256;9.410;2023-09-19T04:30:10;14.00;99.90
13711;DHT22;6927;51.256;9.410;2023-09-19T04:32:39;14.10;99.90
13711;DHT22;6927;51.256;9.410;2023-09-19T04:35:07;14.10;99.90
13711;DHT22;6927;51.256;9.410;2023-09-19T04:37:35;14.10;99.90
13711;DHT22;6927;51.256;9.410;2023-09-19T04:40:01;14.10;99.90
13711;DHT22;6927;51.256;9.410;2023-09-19T04:42:26;14.10;99.90
13711;DHT22;6927;51.256;9.410;2023-09-19T04:44:52;14.10;99.90
13711;DHT22;6927;51.256;9.410;2023-09-19T04:47:18;14.10;99.90
13711;DHT22;6927;51.256;9.410;2023-09-19T04:49:44;14.10;99.90
13711;DHT22;6927;51.256;9.410;2023-09-19T04:52:09;14.10;99.90
13711;DHT22;6927;51.256;9.410;2023-09-19T04:54:35;14.10;99.90
13711;DHT22;6927;51.256;9.410;2023-09-19T04:57:00;14.10;99.90
13711;DHT22;6927;51.256;9.410;2023-09-19T04:59:26;14.00;99.90
13711;DHT22;6927;51.256;9.410;2023-09-19T05:01:53;14.00;99.90
13711;DHT22;6927;51.256;9.410;2023-09-19T05:04:19;14.00;99.90
13711;DHT22;6927;51.256;9.410;2023-09-19T05:06:44;14.00;99.90
13711;DHT22;6927;51.256;9.410;2023-09-19T05:09:10;13.90;99.90
13711;DHT22;6927;51.256;9.410;2023-09-19T05:11:35;13.90;99.90
13711;DHT22;6927;51.256;9.410;2023-09-19T05:14:03;13.80;99.90
13711;DHT22;6927;51.256;9.410;2023-09-19T05:16:29;13.80;99.90
13711;DHT22;6927;51.256;9.410;2023-09-19T05:18:57;13.80;99.90
13711;DHT22;6927;51.256;9.410;2023-09-19T05:21:25;13.70;99.90
13711;DHT22;6927;51.256;9.410;2023-09-19T05:23:54;13.70;99.90
13711;DHT22;6927;51.256;9.410;2023-09-19T05:26:20;13.80;99.90
13711;DHT22;6927;51.256;9.410;2023-09-19T05:28:46;13.70;99.90
13711;DHT22;6927;51.256;9.410;2023-09-19T05:31:13;13.80;99.90
13711;DHT22;6927;51.256;9.410;2023-09-19T05:33:39;13.90;99.90
13711;DHT22;6927;51.256;9.410;2023-09-19T05:36:05;13.90;99.90
13711;DHT22;6927;51.256;9.410;2023-09-19T05:38:30;13.80;99.90
13711;DHT22;6927;51.256;9.410;2023-09-19T05:40:58;13.80;99.90
13711;DHT22;6927;51.256;9.410;2023-09-19T05:43:23;13.80;99.90
13711;DHT22;6927;51.256;9.410;2023-09-19T05:45:49;13.90;99.90
13711;DHT22;6927;51.256;9.410;2023-09-19T05:48:17;13.90;99.90
13711;DHT22;6927;51.256;9.410;2023-09-19T05:50:43;14.00;99.90
13711;DHT22;6927;51.256;9.410;2023-09-19T05:53:10;14.00;99.90
13711;DHT22;6927;51.256;9.410;2023-09-19T05:55:40;14.00;99.90
13711;DHT22;6927;51.256;9.410;2023-09-19T05:58:06;14.10;99.90
13711;DHT22;6927;51.256;9.410;2023-09-19T06:00:31;14.10;99.90
13711;DHT22;6927;51.256;9.410;2023-09-19T06:02:58;14.20;99.90
13711;DHT22;6927;51.256;9.410;2023-09-19T06:05:25;14.20;99.90
13711;DHT22;6927;51.256;9.410;2023-09-19T06:07:52;14.30;99.90
13711;DHT22;6927;51.256;9.410;2023-09-19T06:10:19;14.30;99.90
13711;DHT22;6927;51.256;9.410;2023-09-19T06:12:46;14.30;99.90
13711;DHT22;6927;51.256;9.410;2023-09-19T06:15:14;14.40;99.90
13711;DHT22;6927;51.256;9.410;2023-09-19T06:17:54;14.40;99.90
13711;DHT22;6927;51.256;9.410;2023-09-19T06:20:20;14.40;99.90
13711;DHT22;6927;51.256;9.410;2023-09-19T06:22:48;14.50;99.90
13711;DHT22;6927;51.256;9.410;2023-09-19T06:25:15;14.50;99.90
13711;DHT22;6927;51.256;9.410;2023-09-19T06:27:48;14.60;99.90
13711;DHT22;6927;51.256;9.410;2023-09-19T06:30:14;14.60;99.90
13711;DHT22;6927;51.256;9.410;2023-09-19T06:32:43;14.70;99.90
13711;DHT22;6927;51.256;9.410;2023-09-19T06:35:15;14.70;99.90
13711;DHT22;6927;51.256;9.410;2023-09-19T06:37:42;14.80;99.90
13711;DHT22;6927;51.256;9.410;2023-09-19T06:40:12;14.80;99.90
13711;DHT22;6927;51.256;9.410;2023-09-19T06:42:43;14.90;99.90
13711;DHT22;6927;51.256;9.410;2023-09-19T06:45:14;14.90;99.90
13711;DHT22;6927;51.256;9.410;2023-09-19T06:47:46;15.00;99.90
13711;DHT22;6927;51.256;9.410;2023-09-19T06:50:15;15.10;99.90
13711;DHT22;6927;51.256;9.410;2023-09-19T06:52:44;15.10;99.90
13711;DHT22;6927;51.256;9.410;2023-09-19T06:55:11;15.10;99.90
13711;DHT22;6927;51.256;9.410;2023-09-19T06:57:39;15.20;99.90
13711;DHT22;6927;51.256;9.410;2023-09-19T07:00:06;15.20;99.90
13711;DHT22;6927;51.256;9.410;2023-09-19T07:02:41;15.20;99.90
13711;DHT22;6927;51.256;9.410;2023-09-19T07:05:08;15.20;99.90
13711;DHT22;6927;51.256;9.410;2023-09-19T07:07:33;15.20;99.90
13711;DHT22;6927;51.256;9.410;2023-09-19T07:10:03;15.20;99.90
13711;DHT22;6927;51.256;9.410;2023-09-19T07:12:31;15.20;99.90
13711;DHT22;6927;51.256;9.410;2023-09-19T07:14:58;15.30;1.00
13711;DHT22;6927;51.256;9.410;2023-09-19T07:17:23;15.50;21.20
13711;DHT22;6927;51.256;9.410;2023-09-19T07:19:49;15.50;1.00
13711;DHT22;6927;51.256;9.410;2023-09-19T07:22:15;15.60;1.00
13711;DHT22;6927;51.256;9.410;2023-09-19T07:24:41;15.60;1.00
13711;DHT22;6927;51.256;9.410;2023-09-19T07:27:07;15.70;1.00
13711;DHT22;6927;51.256;9.410;2023-09-19T07:29:32;15.60;99.90
13711;DHT22;6927;51.256;9.410;2023-09-19T07:31:58;15.70;1.00
13711;DHT22;6927;51.256;9.410;2023-09-19T07:34:23;15.80;1.00
13711;DHT22;6927;51.256;9.410;2023-09-19T07:36:49;15.80;1.00
13711;DHT22;6927;51.256;9.410;2023-09-19T07:39:15;15.90;1.00
13711;DHT22;6927;51.256;9.410;2023-09-19T07:41:41;16.00;1.00
13711;DHT22;6927;51.256;9.410;2023-09-19T07:44:07;16.20;99.90
13711;DHT22;6927;51.256;9.410;2023-09-19T07:46:35;16.30;1.00
13711;DHT22;6927;51.256;9.410;2023-09-19T07:49:01;16.40;99.90
13711;DHT22;6927;51.256;9.410;2023-09-19T07:51:26;16.50;99.90
13711;DHT22;6927;51.256;9.410;2023-09-19T07:53:52;16.60;99.90
13711;DHT22;6927;51.256;9.410;2023-09-19T07:56:18;16.60;99.90
13711;DHT22;6927;51.256;9.410;2023-09-19T07:58:46;16.60;99.90
13711;DHT22;6927;51.256;9.410;2023-09-19T08:01:12;16.70;99.90
13711;DHT22;6927;51.256;9.410;2023-09-19T08:03:39;16.70;99.90
13711;DHT22;6927;51.256;9.410;2023-09-19T08:06:07;16.70;99.90
13711;DHT22;6927;51.256;9.410;2023-09-19T08:08:34;16.80;99.90
13711;DHT22;6927;51.256;9.410;2023-09-19T08:11:03;16.80;99.90
13711;DHT22;6927;51.256;9.410;2023-09-19T08:13:29;16.80;99.90
13711;DHT22;6927;51.256;9.410;2023-09-19T08:15:59;16.80;99.90
13711;DHT22;6927;51.256;9.410;2023-09-19T08:18:25;17.00;1.00
13711;DHT22;6927;51.256;9.410;2023-09-19T08:20:52;17.20;99.90
13711;DHT22;6927;51.256;9.410;2023-09-19T08:23:18;17.20;99.90
13711;DHT22;6927;51.256;9.410;2023-09-19T08:25:46;17.30;99.90
13711;DHT22;6927;51.256;9.410;2023-09-19T08:28:11;17.20;99.90
13711;DHT22;6927;51.256;9.410;2023-09-19T08:30:39;17.20;99.90
13711;DHT22;6927;51.256;9.410;2023-09-19T08:33:06;17.20;73.80
13711;DHT22;6927;51.256;9.410;2023-09-19T08:35:33;17.40;99.90
13711;DHT22;6927;51.256;9.410;2023-09-19T08:37:59;17.50;99.90
13711;DHT22;6927;51.256;9.410;2023-09-19T08:40:30;17.50;99.90
13711;DHT22;6927;51.256;9.410;2023-09-19T08:42:59;17.70;99.90
13711;DHT22;6927;51.256;9.410;2023-09-19T08:45:26;18.00;1.00
13711;DHT22;6927;51.256;9.410;2023-09-19T08:50:29;17.70;88.50
13711;DHT22;6927;51.256;9.410;2023-09-19T08:52:58;17.50;1.00
13711;DHT22;6927;51.256;9.410;2023-09-19T08:55:29;17.50;1.00
13711;DHT22;6927;51.256;9.410;2023-09-19T08:58:00;17.70;1.00
13711;DHT22;6927;51.256;9.410;2023-09-19T09:00:28;18.20;99.90
13711;DHT22;6927;51.256;9.410;2023-09-19T09:02:55;18.10;99.90
13711;DHT22;6927;51.256;9.410;2023-09-19T09:05:22;18.00;99.90
13711;DHT22;6927;51.256;9.410;2023-09-19T09:07:52;18.20;99.90
13711;DHT22;6927;51.256;9.410;2023-09-19T09:10:21;18.40;99.90
13711;DHT22;6927;51.256;9.410;2023-09-19T09:12:58;18.60;99.90
13711;DHT22;6927;51.256;9.410;2023-09-19T09:15:24;18.90;99.90
13711;DHT22;6927;51.256;9.410;2023-09-19T09:17:51;18.80;99.90
13711;DHT22;6927;51.256;9.410;2023-09-19T09:20:19;18.80;99.90
13711;DHT22;6927;51.256;9.410;2023-09-19T09:22:55;18.70;99.90
13711;DHT22;6927;51.256;9.410;2023-09-19T09:25:52;18.70;99.90
13711;DHT22;6927;51.256;9.410;2023-09-19T09:28:23;18.70;99.90
13711;DHT22;6927;51.256;9.410;2023-09-19T09:30:49;19.00;99.90
13711;DHT22;6927;51.256;9.410;2023-09-19T09:33:16;18.90;99.90
13711;DHT22;6927;51.256;9.410;2023-09-19T09:38:19;18.50;99.90
13711;DHT22;6927;51.256;9.410;2023-09-19T09:40:49;18.50;99.90
13711;DHT22;6927;51.256;9.410;2023-09-19T09:43:30;18.90;99.90
13711;DHT22;6927;51.256;9.410;2023-09-19T09:48:58;19.10;99.90
13711;DHT22;6927;51.256;9.410;2023-09-19T09:51:47;19.20;99.90
13711;DHT22;6927;51.256;9.410;2023-09-19T09:54:23;19.30;99.90
13711;DHT22;6927;51.256;9.410;2023-09-19T09:57:12;19.30;99.90
13711;DHT22;6927;51.256;9.410;2023-09-19T09:59:46;19.50;99.90
13711;DHT22;6927;51.256;9.410;2023-09-19T10:02:17;19.70;99.90
13711;DHT22;6927;51.256;9.410;2023-09-19T10:04:55;19.80;99.90
13711;DHT22;6927;51.256;9.410;2023-09-19T10:07:40;19.70;99.90
13711;DHT22;6927;51.256;9.410;2023-09-19T10:10:07;19.70;99.90
13711;DHT22;6927;51.256;9.410;2023-09-19T10:12:43;19.50;99.90
13711;DHT22;6927;51.256;9.410;2023-09-19T10:15:11;19.50;99.90
13711;DHT22;6927;51.256;9.410;2023-09-19T10:17:45;19.60;99.90
13711;DHT22;6927;51.256;9.410;2023-09-19T10:20:17;19.40;99.90
13711;DHT22;6927;51.256;9.410;2023-09-19T10:23:01;19.20;99.90
13711;DHT22;6927;51.256;9.410;2023-09-19T10:25:29;18.80;99.90
13711;DHT22;6927;51.256;9.410;2023-09-19T10:27:57;18.60;99.90
13711;DHT22;6927;51.256;9.410;2023-09-19T10:30:25;18.70;99.90
13711;DHT22;6927;51.256;9.410;2023-09-19T10:33:01;19.00;99.90
13711;DHT22;6927;51.256;9.410;2023-09-19T10:35:28;19.10;99.90
13711;DHT22;6927;51.256;9.410;2023-09-19T10:38:00;18.90;99.90
13711;DHT22;6927;51.256;9.410;2023-09-19T10:40:27;18.80;99.90
13711;DHT22;6927;51.256;9.410;2023-09-19T10:43:03;18.70;99.90
13711;DHT22;6927;51.256;9.410;2023-09-19T10:45:34;18.70;99.90
13711;DHT22;6927;51.256;9.410;2023-09-19T10:48:01;18.60;99.90
13711;DHT22;6927;51.256;9.410;2023-09-19T10:50:33;18.60;99.90
13711;DHT22;6927;51.256;9.410;2023-09-19T10:53:02;18.50;99.90
13711;DHT22;6927;51.256;9.410;2023-09-19T10:55:31;18.70;99.90
13711;DHT22;6927;51.256;9.410;2023-09-19T10:57:59;19.00;99.90
13711;DHT22;6927;51.256;9.410;2023-09-19T11:00:25;19.30;99.90
13711;DHT22;6927;51.256;9.410;2023-09-19T11:03:16;19.30;99.90
13711;DHT22;6927;51.256;9.410;2023-09-19T11:06:08;19.40;99.90
13711;DHT22;6927;51.256;9.410;2023-09-19T11:08:55;19.50;99.90
13711;DHT22;6927;51.256;9.410;2023-09-19T11:30:51;20.80;99.90
13711;DHT22;6927;51.256;9.410;2023-09-19T11:33:30;20.50;99.90
13711;DHT22;6927;51.256;9.410;2023-09-19T11:43:47;20.20;99.90
13711;DHT22;6927;51.256;9.410;2023-09-19T11:46:14;20.20;99.90
13711;DHT22;6927;51.256;9.410;2023-09-19T11:48:48;19.70;99.90
13711;DHT22;6927;51.256;9.410;2023-09-19T11:51:16;19.40;99.90
13711;DHT22;6927;51.256;9.410;2023-09-19T11:53:48;19.30;99.90
13711;DHT22;6927;51.256;9.410;2023-09-19T11:56:22;19.60;99.90
13711;DHT22;6927;51.256;9.410;2023-09-19T11:58:50;20.00;99.90
13711;DHT22;6927;51.256;9.410;2023-09-19T12:01:32;20.10;99.90
13711;DHT22;6927;51.256;9.410;2023-09-19T12:04:03;20.00;99.90
13711;DHT22;6927;51.256;9.410;2023-09-19T12:06:30;20.30;99.90
13711;DHT22;6927;51.256;9.410;2023-09-19T12:08:58;20.50;99.90
13711;DHT22;6927;51.256;9.410;2023-09-19T12:11:31;20.60;99.90
13711;DHT22;6927;51.256;9.410;2023-09-19T12:14:01;20.80;99.90
13711;DHT22;6927;51.256;9.410;2023-09-19T12:16:28;21.20;99.90
13711;DHT22;6927;51.256;9.410;2023-09-19T12:18:57;21.20;99.90
13711;DHT22;6927;51.256;9.410;2023-09-19T12:21:30;20.90;99.90
13711;DHT22;6927;51.256;9.410;2023-09-19T12:24:15;20.80;99.90
13711;DHT22;6927;51.256;9.410;2023-09-19T12:26:45;20.60;99.90
13711;DHT22;6927;51.256;9.410;2023-09-19T12:29:16;20.50;99.90
13711;DHT22;6927;51.256;9.410;2023-09-19T12:31:54;20.50;99.90
13711;DHT22;6927;51.256;9.410;2023-09-19T12:34:32;20.60;99.90
13711;DHT22;6927;51.256;9.410;2023-09-19T12:39:50;20.20;99.90
13711;DHT22;6927;51.256;9.410;2023-09-19T12:42:21;19.90;99.90
13711;DHT22;6927;51.256;9.410;2023-09-19T12:44:56;19.90;99.90
13711;DHT22;6927;51.256;9.410;2023-09-19T12:47:24;19.90;99.90
13711;DHT22;6927;51.256;9.410;2023-09-19T12:50:05;19.90;99.90
13711;DHT22;6927;51.256;9.410;2023-09-19T12:52:36;20.10;99.90
13711;DHT22;6927;51.256;9.410;2023-09-19T12:55:02;20.30;99.90
13711;DHT22;6927;51.256;9.410;2023-09-19T12:57:28;20.40;99.90
13711;DHT22;6927;51.256;9.410;2023-09-19T12:59:55;20.50;99.90
13711;DHT22;6927;51.256;9.410;2023-09-19T13:02:21;20.60;99.90
13711;DHT22;6927;51.256;9.410;2023-09-19T13:04:53;20.50;99.90
13711;DHT22;6927;51.256;9.410;2023-09-19T13:07:44;20.30;99.90
13711;DHT22;6927;51.256;9.410;2023-09-19T13:10:14;20.30;99.90
13711;DHT22;6927;51.256;9.410;2023-09-19T13:12:42;20.20;99.90
13711;DHT22;6927;51.256;9.410;2023-09-19T13:15:14;20.30;99.90
13711;DHT22;6927;51.256;9.410;2023-09-19T13:17:50;20.50;99.90
13711;DHT22;6927;51.256;9.410;2023-09-19T13:20:26;20.70;99.90
13711;DHT22;6927;51.256;9.410;2023-09-19T13:22:57;21.30;99.90
13711;DHT22;6927;51.256;9.410;2023-09-19T13:25:31;21.70;99.90
13711;DHT22;6927;51.256;9.410;2023-09-19T13:27:58;21.50;99.90
13711;DHT22;6927;51.256;9.410;2023-09-19T13:30:27;21.30;99.90
13711;DHT22;6927;51.256;9.410;2023-09-19T13:33:10;21.30;99.90
13711;DHT22;6927;51.256;9.410;2023-09-19T13:35:36;21.50;99.90
13711;DHT22;6927;51.256;9.410;2023-09-19T13:38:03;21.60;99.90
13711;DHT22;6927;51.256;9.410;2023-09-19T13:40:29;22.00;99.90
13711;DHT22;6927;51.256;9.410;2023-09-19T13:43:00;21.90;99.90
13711;DHT22;6927;51.256;9.410;2023-09-19T13:45:26;21.60;99.90
13711;DHT22;6927;51.256;9.410;2023-09-19T13:47:52;21.00;99.90
13711;DHT22;6927;51.256;9.410;2023-09-19T13:50:19;20.50;99.90
13711;DHT22;6927;51.256;9.410;2023-09-19T13:52:52;20.40;99.90
13711;DHT22;6927;51.256;9.410;2023-09-19T13:55:19;20.40;99.90
13711;DHT22;6927;51.256;9.410;2023-09-19T13:57:48;20.40;99.90
13711;DHT22;6927;51.256;9.410;2023-09-19T14:00:20;20.40;99.90
13711;DHT22;6927;51.256;9.410;2023-09-19T14:02:46;20.60;99.90
13711;DHT22;6927;51.256;9.410;2023-09-19T14:05:14;20.70;99.90
13711;DHT22;6927;51.256;9.410;2023-09-19T14:07:41;20.70;99.90
13711;DHT22;6927;51.256;9.410;2023-09-19T14:10:07;20.70;99.90
13711;DHT22;6927;51.256;9.410;2023-09-19T14:12:39;20.50;99.90
13711;DHT22;6927;51.256;9.410;2023-09-19T14:15:08;20.40;99.90
13711;DHT22;6927;51.256;9.410;2023-09-19T14:17:34;20.70;99.90
13711;DHT22;6927;51.256;9.410;2023-09-19T14:20:00;20.70;99.90
13711;DHT22;6927;51.256;9.410;2023-09-19T14:22:25;20.40;99.90
13711;DHT22;6927;51.256;9.410;2023-09-19T14:24:51;20.40;99.90
13711;DHT22;6927;51.256;9.410;2023-09-19T14:27:18;20.30;99.90
13711;DHT22;6927;51.256;9.410;2023-09-19T14:29:43;20.30;99.90
13711;DHT22;6927;51.256;9.410;2023-09-19T14:32:09;20.40;99.90
13711;DHT22;6927;51.256;9.410;2023-09-19T14:34:35;20.50;99.90
13711;DHT22;6927;51.256;9.410;2023-09-19T14:37:07;20.70;99.90
13711;DHT22;6927;51.256;9.410;2023-09-19T14:39:33;20.90;99.90
13711;DHT22;6927;51.256;9.410;2023-09-19T14:41:58;21.10;99.90
13711;DHT22;6927;51.256;9.410;2023-09-19T14:44:24;21.40;99.90
13711;DHT22;6927;51.256;9.410;2023-09-19T14:46:49;21.40;99.90
13711;DHT22;6927;51.256;9.410;2023-09-19T14:49:15;21.90;99.90
13711;DHT22;6927;51.256;9.410;2023-09-19T14:51:42;22.50;99.90
13711;DHT22;6927;51.256;9.410;2023-09-19T14:54:12;22.90;99.90
13711;DHT22;6927;51.256;9.410;2023-09-19T14:56:38;23.00;99.90
13711;DHT22;6927;51.256;9.410;2023-09-19T14:59:04;23.40;99.90
13711;DHT22;6927;51.256;9.410;2023-09-19T15:01:30;24.00;99.90
13711;DHT22;6927;51.256;9.410;2023-09-19T15:03:55;24.60;99.90
13711;DHT22;6927;51.256;9.410;2023-09-19T15:06:21;24.70;99.90
13711;DHT22;6927;51.256;9.410;2023-09-19T15:08:47;24.70;99.90
13711;DHT22;6927;51.256;9.410;2023-09-19T15:11:14;24.40;99.90
13711;DHT22;6927;51.256;9.410;2023-09-19T15:13:42;24.60;99.90
13711;DHT22;6927;51.256;9.410;2023-09-19T15:16:09;24.60;99.90
13711;DHT22;6927;51.256;9.410;2023-09-19T15:18:36;24.20;99.90
13711;DHT22;6927;51.256;9.410;2023-09-19T15:21:06;24.50;99.90
13711;DHT22;6927;51.256;9.410;2023-09-19T15:23:35;24.40;99.90
13711;DHT22;6927;51.256;9.410;2023-09-19T15:26:05;24.20;99.90
13711;DHT22;6927;51.256;9.410;2023-09-19T15:28:32;23.90;99.90
13711;DHT22;6927;51.256;9.410;2023-09-19T15:31:17;24.30;99.90
13711;DHT22;6927;51.256;9.410;2023-09-19T15:33:42;24.40;99.90
13711;DHT22;6927;51.256;9.410;2023-09-19T15:36:12;24.60;99.90
13711;DHT22;6927;51.256;9.410;2023-09-19T15:38:58;25.00;99.90
13711;DHT22;6927;51.256;9.410;2023-09-19T15:41:35;25.30;99.90
13711;DHT22;6927;51.256;9.410;2023-09-19T15:44:03;25.70;99.90
13711;DHT22;6927;51.256;9.410;2023-09-19T15:46:30;25.30;99.90
13711;DHT22;6927;51.256;9.410;2023-09-19T15:48:57;25.20;99.90
13711;DHT22;6927;51.256;9.410;2023-09-19T15:51:23;24.60;99.90
13711;DHT22;6927;51.256;9.410;2023-09-19T15:53:51;24.20;99.90
13711;DHT22;6927;51.256;9.410;2023-09-19T15:56:18;24.20;99.90
13711;DHT22;6927;51.256;9.410;2023-09-19T15:58:47;24.20;99.90
13711;DHT22;6927;51.256;9.410;2023-09-19T16:01:13;24.10;99.90
13711;DHT22;6927;51.256;9.410;2023-09-19T16:03:43;24.20;99.90
13711;DHT22;6927;51.256;9.410;2023-09-19T16:06:13;24.10;99.90
13711;DHT22;6927;51.256;9.410;2023-09-19T16:08:40;23.90;99.90
13711;DHT22;6927;51.256;9.410;2023-09-19T16:11:06;23.30;99.90
13711;DHT22;6927;51.256;9.410;2023-09-19T16:13:31;22.90;99.90
13711;DHT22;6927;51.256;9.410;2023-09-19T16:15:57;22.50;99.90
13711;DHT22;6927;51.256;9.410;2023-09-19T16:18:23;22.40;99.90
13711;DHT22;6927;51.256;9.410;2023-09-19T16:20:49;22.50;99.90
13711;DHT22;6927;51.256;9.410;2023-09-19T16:23:15;22.20;99.90
13711;DHT22;6927;51.256;9.410;2023-09-19T16:25:41;21.80;99.90
13711;DHT22;6927;51.256;9.410;2023-09-19T16:28:06;21.10;99.90
13711;DHT22;6927;51.256;9.410;2023-09-19T16:30:32;20.30;99.90
13711;DHT22;6927;51.256;9.410;2023-09-19T16:33:01;19.80;99.90
13711;DHT22;6927;51.256;9.410;2023-09-19T16:35:27;19.30;99.90
13711;DHT22;6927;51.256;9.410;2023-09-19T16:37:52;19.00;99.90
13711;DHT22;6927;51.256;9.410;2023-09-19T16:40:18;18.70;99.90
13711;DHT22;6927;51.256;9.410;2023-09-19T16:42:43;18.60;99.90
13711;DHT22;6927;51.256;9.410;2023-09-19T16:45:09;18.40;99.90